Latest Coastal Weather Observations for Mandora

IDW60701

Issued at 4:23 am WST Sunday 26 February 2017 (issued every 10 minutes, with the page automatically refreshed every 10 minutes)

About coastal observations | Map of coastal stations | Coastal observations for WA | Marine services | Other Formats
Station Details ID: 004019 Name: MANDORA Lat: -19.74 Lon: 120.84 Height: 7.5 m
Data from the previous 72 hours. | See also: Recent months at Mandora
Date/Time
WST
Temp
°C
Wind Pressure Rain since
9am
mm
Weather Cloud Vis
km
Sea
Height
m
Swell
Dir  Spd
kts
Gust
kts
hPa Trend Height
m
Period
s
Dir
26/04:00am 25.2 E 5 9 1008.1 - 1.2 - - - - - - -
26/03:30am 25.1 E 4 6 1008.1 - 1.2 - - - - - - -
26/03:00am 25.3 E 4 6 1007.9 - 1.2 - - - - - - -
26/02:30am 25.7 ENE 5 7 1007.6 - 1.2 - - - - - - -
26/02:00am 26.0 ENE 6 10 1007.7 - 1.2 - - - - - - -
26/01:30am 26.5 ENE 8 15 1007.9 - 1.2 - - - - - - -
26/01:00am 27.7 ENE 13 22 1007.7 - 1.2 - - - - - - -
26/12:30am 29.5 ESE 9 14 1007.4 - 1.2 - - - - - - -
26/12:00am 29.0 SE 6 9 1007.3 - 1.2 - - - - - - -
 
Date/Time
WST
Temp
°C
Wind Pressure Rain since
9am
mm
Weather Cloud Vis
km
Sea
Height
m
Swell
Dir  Spd
kts
Gust
kts
hPa Trend Height
m
Period
s
Dir
25/11:30pm 28.0 SSE 4 6 1007.3 - 1.2 - - - - - - -
25/11:00pm 27.6 ESE 2 4 1007.6 - 1.2 - - - - - - -
25/10:30pm 28.0 ESE 3 4 1007.6 - 1.2 - - - - - - -
25/10:00pm 28.9 ESE 1 4 1007.7 - 1.2 - - - - - - -
25/09:30pm 29.7 SE 3 5 1007.9 - 1.2 - - - - - - -
25/09:00pm 31.0 SSE 6 10 1007.9 - 1.2 - - - - - - -
25/08:30pm 31.4 S 7 10 1007.9 - 1.2 - - - - - - -
25/08:00pm 30.1 NNW 4 6 1007.6 - 1.2 - - - - - - -
25/07:30pm 29.9 NNE 6 13 1007.4 - 1.2 - - - - - - -
25/07:00pm 29.6 SSW 5 7 1007.0 - 1.2 - - - - - - -
25/06:30pm 30.4 SSW 8 11 1006.6 - 1.2 - - - - - - -
25/06:00pm 30.1 SSW 8 11 1006.6 - 1.2 - - - - - - -
25/05:30pm 29.5 SW 12 18 1006.5 - 1.2 - - - - - - -
25/05:00pm 32.4 ESE 5 6 1005.6 - 1.2 - - - - - - -
25/04:30pm 33.1 ESE 12 27 1005.8 - 0.6 - - - - - - -
25/04:25pm 35.1 E 11 27 1005.9 - 0.0 - - - - - - -
25/04:00pm 41.2 E 7 11 1005.3 - 0.0 - - - - - - -
25/03:30pm 40.5 E 7 14 1005.5 - 0.0 - - - - - - -
25/03:00pm 41.1 E 6 13 1006.0 - 0.0 - - - - - - -
25/02:30pm 40.7 ENE 9 16 1006.6 - 0.0 - - - - - - -
25/02:00pm 40.4 ENE 10 17 1007.1 - 0.0 - - - - - - -
25/01:30pm 40.0 E 11 18 1007.5 - 0.0 - - - - - - -
25/01:00pm 40.1 E 11 18 1008.0 - 0.0 - - - - - - -
25/12:30pm 40.1 E 10 17 1008.5 - 0.0 - - - - - - -
25/12:00pm 39.1 E 11 17 1009.0 - 0.0 - - - - - - -
25/11:30am 39.4 E 10 18 1009.4 - 0.0 - - - - - - -
25/11:00am 38.1 E 11 18 1009.7 - 0.0 - - - - - - -
25/10:30am 37.7 E 10 16 1009.9 - 0.0 - - - - - - -
25/10:00am 37.3 E 8 14 1010.1 - 0.0 - - - - - - -
25/09:30am 35.5 ENE 9 15 1010.4 - 0.0 - - - - - - -
25/09:00am 34.7 E 9 17 1010.5 - 0.0 - - - - - - -
25/08:30am 33.7 E 9 15 1010.4 - 0.0 - - - - - - -
25/08:00am 32.2 ESE 9 14 1010.4 - 0.0 - - - - - - -
25/07:30am 29.9 ESE 7 10 1010.2 - 0.0 - - - - - - -
25/07:00am 27.8 SE 6 9 1010.1 - 0.0 - - - - - - -
25/06:30am 25.2 SE 5 8 1009.9 - 0.0 - - - - - - -
25/06:00am 23.4 SE 5 6 1009.6 - 0.0 - - - - - - -
25/05:30am 23.0 SE 4 5 1009.2 - 0.0 - - - - - - -
25/05:00am 23.7 ENE 3 5 1009.1 - 0.0 - - - - - - -
25/04:30am 23.5 S 1 3 1008.7 - 0.0 - - - - - - -
25/04:00am 24.6 N 3 5 1008.5 - 0.0 - - - - - - -
25/03:30am 26.3 SSE 3 5 1008.4 - 0.0 - - - - - - -
25/03:00am 26.8 SSE 4 6 1008.3 - 0.0 - - - - - - -
25/02:30am 25.6 SSE 3 4 1008.2 - 0.0 - - - - - - -
25/02:00am 26.6 SE 3 5 1008.3 - 0.0 - - - - - - -
25/01:30am 27.1 SSE 4 5 1008.6 - 0.0 - - - - - - -
25/01:00am 26.6 S 5 6 1008.9 - 0.0 - - - - - - -
25/12:30am 26.6 S 4 5 1009.1 - 0.0 - - - - - - -
25/12:00am 27.2 SSW 5 7 1009.2 - 0.0 - - - - - - -
 
Date/Time
WST
Temp
°C
Wind Pressure Rain since
9am
mm
Weather Cloud Vis
km
Sea
Height
m
Swell
Dir  Spd
kts
Gust
kts
hPa Trend Height
m
Period
s
Dir
24/11:30pm 27.3 SW 5 7 1009.4 - 0.0 - - - - - - -
24/11:00pm 27.9 S 6 8 1010.0 - 0.0 - - - - - - -
24/10:30pm 27.7 S 5 6 1010.2 - 0.0 - - - - - - -
24/10:00pm 28.6 SSE 3 9 1010.3 - 0.0 - - - - - - -
24/09:30pm 28.1 E 3 6 1010.0 - 0.0 - - - - - - -
24/09:00pm 28.3 WSW 2 4 1009.6 - 0.0 - - - - - - -
24/08:30pm 29.3 W 5 6 1009.3 - 0.0 - - - - - - -
24/08:00pm 29.6 WNW 6 7 1009.1 - 0.0 - - - - - - -
24/07:30pm 30.4 WNW 5 7 1009.0 - 0.0 - - - - - - -
24/07:00pm 31.3 NE 7 19 1009.2 - 0.0 - - - - - - -
24/06:30pm 31.5 NW 5 6 1008.3 - 0.0 - - - - - - -
24/06:00pm 33.8 WNW 6 9 1007.8 - 0.0 - - - - - - -
24/05:30pm 35.7 WNW 6 10 1007.7 - 0.0 - - - - - - -
24/05:00pm 37.0 WNW 8 11 1007.3 - 0.0 - - - - - - -
24/04:30pm 38.1 NW 8 11 1006.9 - 0.0 - - - - - - -
24/04:00pm 38.0 NNW 8 13 1007.0 - 0.0 - - - - - - -
24/03:30pm 38.8 NNW 8 11 1007.2 - 0.0 - - - - - - -
24/03:00pm 38.8 NNW 8 10 1007.4 - 0.0 - - - - - - -
24/02:30pm 39.8 NNW 8 11 1007.7 - 0.0 - - - - - - -
24/02:00pm 40.2 NNE 6 11 1007.9 - 0.0 - - - - - - -
24/01:30pm 41.7 NE 8 12 1008.3 - 0.0 - - - - - - -
24/01:00pm 41.7 ENE 6 12 1008.6 - 0.0 - - - - - - -
24/12:30pm 41.0 ESE 7 11 1009.2 - 0.0 - - - - - - -
24/12:00pm 40.6 ESE 7 13 1009.6 - 0.0 - - - - - - -
24/11:30am 39.8 E 6 13 1009.9 - 0.0 - - - - - - -
24/11:00am 38.9 ESE 8 14 1010.2 - 0.0 - - - - - - -
24/10:30am 37.9 ESE 9 14 1010.4 - 0.0 - - - - - - -
24/10:00am 37.0 ESE 10 15 1010.9 - 0.0 - - - - - - -
24/09:30am 36.0 ESE 10 15 1011.1 - 0.0 - - - - - - -
24/09:00am 32.8 SE 7 10 1011.2 - 0.0 - - - - - - -
24/08:30am 31.2 SE 7 11 1011.3 - 0.0 - - - - - - -
24/08:00am 30.2 SSE 6 11 1011.3 - 0.0 - - - - - - -
24/07:30am 29.7 SSE 8 12 1011.2 - 0.0 - - - - - - -
24/07:00am 28.4 SSE 9 12 1011.0 - 0.0 - - - - - - -
24/06:30am 28.2 SSE 8 11 1010.8 - 0.0 - - - - - - -
24/06:00am 27.3 S 7 11 1010.7 - 0.0 - - - - - - -
24/05:30am 26.2 S 6 8 1010.5 - 0.0 - - - - - - -
24/05:00am 25.7 SSW 6 8 1010.5 - 0.0 - - - - - - -
24/04:30am 27.4 SW 6 7 1010.3 - 0.0 - - - - - - -
24/04:00am 27.2 WSW 4 5 1010.4 - 0.0 - - - - - - -
24/03:30am 27.1 SW 5 6 1010.3 - 0.0 - - - - - - -
24/03:00am 27.9 WSW 4 5 1010.5 - 0.0 - - - - - - -
24/02:30am 28.6 W 6 7 1010.4 - 0.0 - - - - - - -
24/02:00am 28.9 WNW 6 9 1010.7 - 0.0 - - - - - - -
24/01:30am 29.2 WSW 6 11 1010.8 - 0.0 - - - - - - -
24/01:00am 28.9 NW 6 8 1011.1 - 0.0 - - - - - - -
24/12:30am 28.4 NW 5 9 1011.3 - 0.0 - - - - - - -
24/12:00am 27.1 WNW 4 6 1011.6 - 0.0 - - - - - - -
 
Date/Time
WST
Temp
°C
Wind Pressure Rain since
9am
mm
Weather Cloud Vis
km
Sea
Height
m
Swell
Dir  Spd
kts
Gust
kts
hPa Trend Height
m
Period
s
Dir
23/11:30pm 27.6 WNW 4 5 1011.6 - 0.0 - - - - - - -
23/11:00pm 28.0 WSW 1 4 1011.8 - 0.0 - - - - - - -
23/10:30pm 28.2 WSW 4 6 1011.9 - 0.0 - - - - - - -
23/10:00pm 28.1 SW 5 6 1011.8 - 0.0 - - - - - - -
23/09:30pm 28.1 WSW 5 6 1011.4 - 0.0 - - - - - - -
23/09:00pm 28.5 WSW 6 7 1011.1 - 0.0 - - - - - - -
23/08:30pm 28.8 WSW 6 7 1010.7 - 0.0 - - - - - - -
23/08:00pm 29.3 WSW 5 7 1010.3 - 0.0 - - - - - - -
23/07:30pm 29.9 W 6 9 1009.8 - 0.0 - - - - - - -
23/07:00pm 30.4 W 7 9 1009.4 - 0.0 - - - - - - -
23/06:30pm 31.1 WNW 6 8 1009.1 - 0.0 - - - - - - -
23/06:00pm 32.5 NW 7 10 1008.7 - 0.0 - - - - - - -
23/05:30pm 33.8 NW 7 11 1008.4 - 0.0 - - - - - - -
23/05:00pm 34.6 WNW 8 13 1008.1 - 0.0 - - - - - - -
23/04:30pm 35.5 NW 9 13 1008.0 - 0.0 - - - - - - -
23/04:00pm 36.8 N 7 13 1007.8 - 0.0 - - - - - - -
23/03:30pm 41.0 ESE 7 11 1008.0 - 0.0 - - - - - - -
23/03:00pm 40.2 ESE 6 9 1008.2 - 0.0 - - - - - - -
23/02:30pm 40.7 E 7 13 1008.6 - 0.0 - - - - - - -
23/02:00pm 40.0 ESE 7 11 1009.0 - 0.0 - - - - - - -
23/01:30pm 40.4 ESE 6 11 1009.3 - 0.0 - - - - - - -
23/01:00pm 39.7 ESE 7 12 1009.6 - 0.0 - - - - - - -
23/12:30pm 38.6 SE 7 15 1010.0 - 0.0 - - - - - - -
23/12:00pm 37.9 SE 7 12 1010.5 - 0.0 - - - - - - -
23/11:30am 37.7 SE 7 11 1010.9 - 0.0 - - - - - - -
23/11:00am 37.1 SE 8 15 1011.3 - 0.0 - - - - - - -
23/10:30am 36.3 ESE 8 12 1011.7 - 0.0 - - - - - - -
23/10:00am 35.3 SE 8 14 1011.9 - 0.0 - - - - - - -
23/09:30am 34.0 S 8 12 1012.0 - 0.0 - - - - - - -
23/09:00am 33.0 SSW 7 12 1012.3 - 0.0 - - - - - - -
23/08:30am 30.6 SW 7 11 1012.5 - 0.0 - - - - - - -
23/08:00am 30.3 SSW 7 9 1012.6 - 0.0 - - - - - - -
23/07:30am 29.1 SSW 5 7 1012.3 - 0.0 - - - - - - -
23/07:00am 26.9 S 5 7 1012.0 - 0.0 - - - - - - -
23/06:30am 25.6 S 4 6 1011.5 - 0.0 - - - - - - -
23/06:00am 24.6 S 4 5 1011.1 - 0.0 - - - - - - -
23/05:30am 24.1 SSE 3 4 1010.8 - 0.0 - - - - - - -
23/05:00am 24.1 SSE 2 3 1010.7 - 0.0 - - - - - - -
23/04:30am 24.1 ESE 4 5 1010.6 - 0.0 - - - - - - -

Other Formats:

Comma delimited format used in spreadsheet applications
http://www.bom.gov.au/fwo/IDW60701/IDW60701.94200.axf

JavaScript Object Notation format (JSON) in row-major order
http://www.bom.gov.au/fwo/IDW60701/IDW60701.94200.json